sensor_id;sensor_type;location;lat;lon;timestamp;P1;durP1;ratioP1;P2;durP2;ratioP2
6223;SDS011;3145;42.726;23.342;2023-12-28T00:02:07;84.47;;;47.73;;
6223;SDS011;3145;42.726;23.342;2023-12-28T00:04:34;74.90;;;46.23;;
6223;SDS011;3145;42.726;23.342;2023-12-28T00:07:01;79.20;;;45.97;;
6223;SDS011;3145;42.726;23.342;2023-12-28T00:09:29;74.57;;;44.77;;
6223;SDS011;3145;42.726;23.342;2023-12-28T00:11:55;72.70;;;45.37;;
6223;SDS011;3145;42.726;23.342;2023-12-28T00:14:22;74.93;;;47.27;;
6223;SDS011;3145;42.726;23.342;2023-12-28T00:16:49;83.67;;;50.93;;
6223;SDS011;3145;42.726;23.342;2023-12-28T00:19:17;87.83;;;50.13;;
6223;SDS011;3145;42.726;23.342;2023-12-28T00:21:44;91.63;;;53.47;;
6223;SDS011;3145;42.726;23.342;2023-12-28T00:24:11;145.83;;;80.57;;
6223;SDS011;3145;42.726;23.342;2023-12-28T00:26:38;108.23;;;61.57;;
6223;SDS011;3145;42.726;23.342;2023-12-28T00:29:05;112.60;;;62.97;;
6223;SDS011;3145;42.726;23.342;2023-12-28T00:31:31;92.87;;;54.53;;
6223;SDS011;3145;42.726;23.342;2023-12-28T00:33:58;94.20;;;55.20;;
6223;SDS011;3145;42.726;23.342;2023-12-28T00:36:26;96.13;;;55.43;;
6223;SDS011;3145;42.726;23.342;2023-12-28T00:38:53;97.47;;;55.00;;
6223;SDS011;3145;42.726;23.342;2023-12-28T00:41:19;89.63;;;54.47;;
6223;SDS011;3145;42.726;23.342;2023-12-28T00:43:46;90.53;;;53.77;;
6223;SDS011;3145;42.726;23.342;2023-12-28T00:46:13;79.73;;;51.77;;
6223;SDS011;3145;42.726;23.342;2023-12-28T00:48:39;96.43;;;51.80;;
6223;SDS011;3145;42.726;23.342;2023-12-28T00:51:06;92.20;;;49.57;;
6223;SDS011;3145;42.726;23.342;2023-12-28T00:53:34;97.53;;;52.03;;
6223;SDS011;3145;42.726;23.342;2023-12-28T00:56:01;96.87;;;53.60;;
6223;SDS011;3145;42.726;23.342;2023-12-28T00:58:28;88.90;;;51.50;;
6223;SDS011;3145;42.726;23.342;2023-12-28T01:00:54;91.13;;;51.30;;
6223;SDS011;3145;42.726;23.342;2023-12-28T01:03:22;95.23;;;52.73;;
6223;SDS011;3145;42.726;23.342;2023-12-28T01:05:49;91.27;;;53.97;;
6223;SDS011;3145;42.726;23.342;2023-12-28T01:08:17;88.80;;;52.00;;
6223;SDS011;3145;42.726;23.342;2023-12-28T01:10:45;91.37;;;53.80;;
6223;SDS011;3145;42.726;23.342;2023-12-28T01:13:12;97.77;;;58.57;;
6223;SDS011;3145;42.726;23.342;2023-12-28T01:15:39;95.10;;;55.13;;
6223;SDS011;3145;42.726;23.342;2023-12-28T01:18:05;104.10;;;58.90;;
6223;SDS011;3145;42.726;23.342;2023-12-28T01:20:32;101.53;;;56.83;;
6223;SDS011;3145;42.726;23.342;2023-12-28T01:22:59;98.80;;;58.43;;
6223;SDS011;3145;42.726;23.342;2023-12-28T01:25:26;105.27;;;56.90;;
6223;SDS011;3145;42.726;23.342;2023-12-28T01:27:54;96.77;;;56.10;;
6223;SDS011;3145;42.726;23.342;2023-12-28T01:30:21;95.93;;;54.50;;
6223;SDS011;3145;42.726;23.342;2023-12-28T01:32:48;98.53;;;56.03;;
6223;SDS011;3145;42.726;23.342;2023-12-28T01:35:14;104.57;;;56.90;;
6223;SDS011;3145;42.726;23.342;2023-12-28T01:37:41;101.10;;;58.70;;
6223;SDS011;3145;42.726;23.342;2023-12-28T01:40:08;89.40;;;49.97;;
6223;SDS011;3145;42.726;23.342;2023-12-28T01:42:35;85.87;;;53.53;;
6223;SDS011;3145;42.726;23.342;2023-12-28T01:45:03;85.93;;;51.47;;
6223;SDS011;3145;42.726;23.342;2023-12-28T01:47:30;91.93;;;52.10;;
6223;SDS011;3145;42.726;23.342;2023-12-28T01:49:57;90.43;;;52.67;;
6223;SDS011;3145;42.726;23.342;2023-12-28T01:52:25;96.50;;;54.80;;
6223;SDS011;3145;42.726;23.342;2023-12-28T01:54:52;95.63;;;54.50;;
6223;SDS011;3145;42.726;23.342;2023-12-28T01:57:19;92.33;;;54.63;;
6223;SDS011;3145;42.726;23.342;2023-12-28T01:59:46;96.70;;;55.27;;
6223;SDS011;3145;42.726;23.342;2023-12-28T02:02:15;77.30;;;47.07;;
6223;SDS011;3145;42.726;23.342;2023-12-28T02:04:42;76.93;;;44.63;;
6223;SDS011;3145;42.726;23.342;2023-12-28T02:07:10;73.30;;;44.97;;
6223;SDS011;3145;42.726;23.342;2023-12-28T02:09:37;70.67;;;45.03;;
6223;SDS011;3145;42.726;23.342;2023-12-28T02:12:05;89.33;;;47.53;;
6223;SDS011;3145;42.726;23.342;2023-12-28T02:14:32;91.40;;;49.17;;
6223;SDS011;3145;42.726;23.342;2023-12-28T02:17:00;84.67;;;48.70;;
6223;SDS011;3145;42.726;23.342;2023-12-28T02:19:37;77.67;;;47.23;;
6223;SDS011;3145;42.726;23.342;2023-12-28T02:22:07;78.67;;;46.63;;
6223;SDS011;3145;42.726;23.342;2023-12-28T02:27:39;94.90;;;51.80;;
6223;SDS011;3145;42.726;23.342;2023-12-28T02:30:08;99.73;;;54.60;;
6223;SDS011;3145;42.726;23.342;2023-12-28T02:32:39;79.83;;;49.70;;
6223;SDS011;3145;42.726;23.342;2023-12-28T02:35:14;89.43;;;50.40;;
6223;SDS011;3145;42.726;23.342;2023-12-28T02:37:44;84.07;;;48.43;;
6223;SDS011;3145;42.726;23.342;2023-12-28T02:40:17;80.07;;;47.67;;
6223;SDS011;3145;42.726;23.342;2023-12-28T02:42:46;85.43;;;50.37;;
6223;SDS011;3145;42.726;23.342;2023-12-28T02:45:13;84.93;;;50.30;;
6223;SDS011;3145;42.726;23.342;2023-12-28T02:47:39;81.13;;;48.63;;
6223;SDS011;3145;42.726;23.342;2023-12-28T02:50:06;83.07;;;48.10;;
6223;SDS011;3145;42.726;23.342;2023-12-28T02:52:33;84.10;;;47.27;;
6223;SDS011;3145;42.726;23.342;2023-12-28T02:55:00;81.17;;;46.43;;
6223;SDS011;3145;42.726;23.342;2023-12-28T02:57:26;78.47;;;46.90;;
6223;SDS011;3145;42.726;23.342;2023-12-28T02:59:54;71.63;;;45.63;;
6223;SDS011;3145;42.726;23.342;2023-12-28T03:02:26;77.83;;;46.50;;
6223;SDS011;3145;42.726;23.342;2023-12-28T03:04:53;75.97;;;46.37;;
6223;SDS011;3145;42.726;23.342;2023-12-28T03:07:20;75.97;;;46.73;;
6223;SDS011;3145;42.726;23.342;2023-12-28T03:09:47;80.07;;;47.03;;
6223;SDS011;3145;42.726;23.342;2023-12-28T03:12:13;76.40;;;47.43;;
6223;SDS011;3145;42.726;23.342;2023-12-28T03:14:41;82.10;;;48.37;;
6223;SDS011;3145;42.726;23.342;2023-12-28T03:17:09;76.27;;;48.30;;
6223;SDS011;3145;42.726;23.342;2023-12-28T03:19:36;80.87;;;47.10;;
6223;SDS011;3145;42.726;23.342;2023-12-28T03:22:03;73.87;;;46.57;;
6223;SDS011;3145;42.726;23.342;2023-12-28T03:24:30;75.90;;;47.60;;
6223;SDS011;3145;42.726;23.342;2023-12-28T03:26:57;71.87;;;44.50;;
6223;SDS011;3145;42.726;23.342;2023-12-28T03:29:23;71.07;;;44.10;;
6223;SDS011;3145;42.726;23.342;2023-12-28T03:31:50;66.53;;;43.10;;
6223;SDS011;3145;42.726;23.342;2023-12-28T03:34:18;94.13;;;52.73;;
6223;SDS011;3145;42.726;23.342;2023-12-28T03:36:45;100.63;;;52.07;;
6223;SDS011;3145;42.726;23.342;2023-12-28T03:39:12;84.17;;;46.73;;
6223;SDS011;3145;42.726;23.342;2023-12-28T03:41:38;73.90;;;46.43;;
6223;SDS011;3145;42.726;23.342;2023-12-28T03:44:05;78.57;;;46.83;;
6223;SDS011;3145;42.726;23.342;2023-12-28T03:46:31;71.30;;;45.27;;
6223;SDS011;3145;42.726;23.342;2023-12-28T03:48:58;64.67;;;42.20;;
6223;SDS011;3145;42.726;23.342;2023-12-28T03:51:26;60.00;;;39.53;;
6223;SDS011;3145;42.726;23.342;2023-12-28T03:53:52;55.77;;;36.57;;
6223;SDS011;3145;42.726;23.342;2023-12-28T03:56:20;66.53;;;38.40;;
6223;SDS011;3145;42.726;23.342;2023-12-28T03:58:48;58.17;;;33.97;;
6223;SDS011;3145;42.726;23.342;2023-12-28T04:01:15;66.90;;;39.63;;
6223;SDS011;3145;42.726;23.342;2023-12-28T04:03:43;52.63;;;35.27;;
6223;SDS011;3145;42.726;23.342;2023-12-28T04:06:10;52.50;;;36.17;;
6223;SDS011;3145;42.726;23.342;2023-12-28T04:08:39;57.07;;;38.87;;
6223;SDS011;3145;42.726;23.342;2023-12-28T04:11:05;62.43;;;39.70;;
6223;SDS011;3145;42.726;23.342;2023-12-28T04:13:32;66.63;;;41.87;;
6223;SDS011;3145;42.726;23.342;2023-12-28T04:15:59;58.73;;;39.20;;
6223;SDS011;3145;42.726;23.342;2023-12-28T04:18:26;63.57;;;40.20;;
6223;SDS011;3145;42.726;23.342;2023-12-28T04:20:52;65.90;;;41.97;;
6223;SDS011;3145;42.726;23.342;2023-12-28T04:23:19;67.63;;;42.07;;
6223;SDS011;3145;42.726;23.342;2023-12-28T04:25:47;59.93;;;39.97;;
6223;SDS011;3145;42.726;23.342;2023-12-28T04:28:14;64.80;;;40.77;;
6223;SDS011;3145;42.726;23.342;2023-12-28T04:30:41;65.50;;;42.73;;
6223;SDS011;3145;42.726;23.342;2023-12-28T04:33:07;69.57;;;45.70;;
6223;SDS011;3145;42.726;23.342;2023-12-28T04:35:34;81.77;;;44.60;;
6223;SDS011;3145;42.726;23.342;2023-12-28T04:38:01;61.77;;;41.97;;
6223;SDS011;3145;42.726;23.342;2023-12-28T04:40:28;69.73;;;41.33;;
6223;SDS011;3145;42.726;23.342;2023-12-28T04:42:56;72.07;;;43.60;;
6223;SDS011;3145;42.726;23.342;2023-12-28T04:45:22;68.67;;;45.10;;
6223;SDS011;3145;42.726;23.342;2023-12-28T04:47:49;67.33;;;38.77;;
6223;SDS011;3145;42.726;23.342;2023-12-28T04:50:16;62.63;;;40.70;;
6223;SDS011;3145;42.726;23.342;2023-12-28T04:52:42;57.67;;;36.83;;
6223;SDS011;3145;42.726;23.342;2023-12-28T04:55:09;55.33;;;38.23;;
6223;SDS011;3145;42.726;23.342;2023-12-28T04:57:36;54.57;;;34.77;;
6223;SDS011;3145;42.726;23.342;2023-12-28T05:00:05;69.87;;;46.20;;
6223;SDS011;3145;42.726;23.342;2023-12-28T05:02:33;66.70;;;42.97;;
6223;SDS011;3145;42.726;23.342;2023-12-28T05:05:00;74.70;;;42.67;;
6223;SDS011;3145;42.726;23.342;2023-12-28T05:07:26;72.67;;;43.50;;
6223;SDS011;3145;42.726;23.342;2023-12-28T05:09:53;67.87;;;44.63;;
6223;SDS011;3145;42.726;23.342;2023-12-28T05:12:20;71.03;;;44.67;;
6223;SDS011;3145;42.726;23.342;2023-12-28T05:14:46;80.03;;;48.80;;
6223;SDS011;3145;42.726;23.342;2023-12-28T05:17:14;68.80;;;47.00;;
6223;SDS011;3145;42.726;23.342;2023-12-28T05:19:41;83.07;;;46.57;;
6223;SDS011;3145;42.726;23.342;2023-12-28T05:22:08;71.03;;;43.43;;
6223;SDS011;3145;42.726;23.342;2023-12-28T05:24:36;73.23;;;45.03;;
6223;SDS011;3145;42.726;23.342;2023-12-28T05:27:03;75.20;;;45.97;;
6223;SDS011;3145;42.726;23.342;2023-12-28T05:29:30;76.47;;;46.53;;
6223;SDS011;3145;42.726;23.342;2023-12-28T05:31:56;88.77;;;50.33;;
6223;SDS011;3145;42.726;23.342;2023-12-28T05:34:25;97.53;;;51.63;;
6223;SDS011;3145;42.726;23.342;2023-12-28T05:36:51;80.53;;;48.03;;
6223;SDS011;3145;42.726;23.342;2023-12-28T05:39:18;92.37;;;48.30;;
6223;SDS011;3145;42.726;23.342;2023-12-28T05:41:44;117.63;;;59.43;;
6223;SDS011;3145;42.726;23.342;2023-12-28T05:44:12;122.63;;;64.17;;
6223;SDS011;3145;42.726;23.342;2023-12-28T05:46:39;161.77;;;79.90;;
6223;SDS011;3145;42.726;23.342;2023-12-28T05:49:06;134.03;;;64.53;;
6223;SDS011;3145;42.726;23.342;2023-12-28T05:51:38;124.30;;;64.77;;
6223;SDS011;3145;42.726;23.342;2023-12-28T05:54:06;121.40;;;65.67;;
6223;SDS011;3145;42.726;23.342;2023-12-28T05:56:33;133.90;;;63.87;;
6223;SDS011;3145;42.726;23.342;2023-12-28T05:59:00;104.60;;;53.00;;
6223;SDS011;3145;42.726;23.342;2023-12-28T06:01:26;111.27;;;55.33;;
6223;SDS011;3145;42.726;23.342;2023-12-28T06:03:53;118.33;;;60.77;;
6223;SDS011;3145;42.726;23.342;2023-12-28T06:06:20;124.73;;;63.33;;
6223;SDS011;3145;42.726;23.342;2023-12-28T06:08:48;103.67;;;58.87;;
6223;SDS011;3145;42.726;23.342;2023-12-28T06:11:16;117.43;;;60.73;;
6223;SDS011;3145;42.726;23.342;2023-12-28T06:13:43;102.60;;;55.00;;
6223;SDS011;3145;42.726;23.342;2023-12-28T06:16:10;107.10;;;62.07;;
6223;SDS011;3145;42.726;23.342;2023-12-28T06:18:36;132.47;;;66.17;;
6223;SDS011;3145;42.726;23.342;2023-12-28T06:21:03;113.37;;;64.60;;
6223;SDS011;3145;42.726;23.342;2023-12-28T06:23:31;124.27;;;69.10;;
6223;SDS011;3145;42.726;23.342;2023-12-28T06:26:03;119.17;;;68.50;;
6223;SDS011;3145;42.726;23.342;2023-12-28T06:28:30;135.17;;;75.10;;
6223;SDS011;3145;42.726;23.342;2023-12-28T06:30:57;134.13;;;76.73;;
6223;SDS011;3145;42.726;23.342;2023-12-28T06:33:26;136.40;;;75.80;;
6223;SDS011;3145;42.726;23.342;2023-12-28T06:35:54;141.53;;;74.47;;
6223;SDS011;3145;42.726;23.342;2023-12-28T06:38:23;141.47;;;72.60;;
6223;SDS011;3145;42.726;23.342;2023-12-28T06:40:49;133.13;;;74.00;;
6223;SDS011;3145;42.726;23.342;2023-12-28T06:43:17;122.77;;;68.27;;
6223;SDS011;3145;42.726;23.342;2023-12-28T06:45:44;145.13;;;70.00;;
6223;SDS011;3145;42.726;23.342;2023-12-28T06:48:11;124.30;;;61.80;;
6223;SDS011;3145;42.726;23.342;2023-12-28T06:50:37;124.57;;;62.40;;
6223;SDS011;3145;42.726;23.342;2023-12-28T06:53:04;120.80;;;63.90;;
6223;SDS011;3145;42.726;23.342;2023-12-28T06:55:31;126.03;;;64.93;;
6223;SDS011;3145;42.726;23.342;2023-12-28T06:57:58;122.93;;;61.23;;
6223;SDS011;3145;42.726;23.342;2023-12-28T07:00:26;110.73;;;58.67;;
6223;SDS011;3145;42.726;23.342;2023-12-28T07:02:52;117.63;;;62.43;;
6223;SDS011;3145;42.726;23.342;2023-12-28T07:05:19;106.63;;;58.40;;
6223;SDS011;3145;42.726;23.342;2023-12-28T07:07:46;114.20;;;60.50;;
6223;SDS011;3145;42.726;23.342;2023-12-28T07:10:13;107.53;;;59.00;;
6223;SDS011;3145;42.726;23.342;2023-12-28T07:12:40;129.53;;;68.77;;
6223;SDS011;3145;42.726;23.342;2023-12-28T07:15:07;120.90;;;62.53;;
6223;SDS011;3145;42.726;23.342;2023-12-28T07:17:39;93.53;;;59.33;;
6223;SDS011;3145;42.726;23.342;2023-12-28T07:20:07;98.70;;;54.27;;
6223;SDS011;3145;42.726;23.342;2023-12-28T07:22:35;100.67;;;59.70;;
6223;SDS011;3145;42.726;23.342;2023-12-28T07:25:03;151.67;;;87.57;;
6223;SDS011;3145;42.726;23.342;2023-12-28T07:27:30;160.57;;;93.93;;
6223;SDS011;3145;42.726;23.342;2023-12-28T07:29:57;200.63;;;113.60;;
6223;SDS011;3145;42.726;23.342;2023-12-28T07:32:24;200.23;;;117.47;;
6223;SDS011;3145;42.726;23.342;2023-12-28T07:34:52;213.73;;;121.97;;
6223;SDS011;3145;42.726;23.342;2023-12-28T07:37:19;197.20;;;113.77;;
6223;SDS011;3145;42.726;23.342;2023-12-28T07:39:46;146.93;;;87.20;;
6223;SDS011;3145;42.726;23.342;2023-12-28T07:42:13;144.47;;;86.77;;
6223;SDS011;3145;42.726;23.342;2023-12-28T07:44:40;136.37;;;85.73;;
6223;SDS011;3145;42.726;23.342;2023-12-28T07:47:07;149.60;;;87.03;;
6223;SDS011;3145;42.726;23.342;2023-12-28T07:49:34;139.60;;;79.50;;
6223;SDS011;3145;42.726;23.342;2023-12-28T07:52:02;129.17;;;77.47;;
6223;SDS011;3145;42.726;23.342;2023-12-28T07:54:29;110.20;;;62.67;;
6223;SDS011;3145;42.726;23.342;2023-12-28T07:56:55;82.53;;;52.83;;
6223;SDS011;3145;42.726;23.342;2023-12-28T07:59:22;76.50;;;47.77;;
6223;SDS011;3145;42.726;23.342;2023-12-28T08:01:49;66.77;;;42.30;;
6223;SDS011;3145;42.726;23.342;2023-12-28T08:04:15;51.87;;;34.27;;
6223;SDS011;3145;42.726;23.342;2023-12-28T08:06:42;50.87;;;34.13;;
6223;SDS011;3145;42.726;23.342;2023-12-28T08:09:11;46.93;;;31.43;;
6223;SDS011;3145;42.726;23.342;2023-12-28T08:11:37;53.03;;;34.13;;
6223;SDS011;3145;42.726;23.342;2023-12-28T08:14:04;58.03;;;36.90;;
6223;SDS011;3145;42.726;23.342;2023-12-28T08:16:31;60.40;;;41.03;;
6223;SDS011;3145;42.726;23.342;2023-12-28T08:19:00;121.50;;;71.90;;
6223;SDS011;3145;42.726;23.342;2023-12-28T08:21:26;124.10;;;73.53;;
6223;SDS011;3145;42.726;23.342;2023-12-28T08:23:53;124.13;;;75.10;;
6223;SDS011;3145;42.726;23.342;2023-12-28T08:26:21;138.10;;;79.07;;
6223;SDS011;3145;42.726;23.342;2023-12-28T08:28:48;132.50;;;76.13;;
6223;SDS011;3145;42.726;23.342;2023-12-28T08:31:15;101.13;;;57.40;;
6223;SDS011;3145;42.726;23.342;2023-12-28T08:33:41;90.73;;;54.07;;
6223;SDS011;3145;42.726;23.342;2023-12-28T08:36:08;92.53;;;52.87;;
6223;SDS011;3145;42.726;23.342;2023-12-28T08:38:36;86.27;;;50.47;;
6223;SDS011;3145;42.726;23.342;2023-12-28T08:41:03;74.17;;;47.47;;
6223;SDS011;3145;42.726;23.342;2023-12-28T08:43:35;69.93;;;47.23;;
6223;SDS011;3145;42.726;23.342;2023-12-28T08:46:02;78.27;;;45.97;;
6223;SDS011;3145;42.726;23.342;2023-12-28T08:48:29;67.27;;;45.00;;
6223;SDS011;3145;42.726;23.342;2023-12-28T08:50:55;62.27;;;40.00;;
6223;SDS011;3145;42.726;23.342;2023-12-28T08:53:22;64.73;;;39.47;;
6223;SDS011;3145;42.726;23.342;2023-12-28T08:55:49;64.03;;;39.13;;
6223;SDS011;3145;42.726;23.342;2023-12-28T08:58:16;59.17;;;38.60;;
6223;SDS011;3145;42.726;23.342;2023-12-28T09:00:44;58.87;;;39.20;;
6223;SDS011;3145;42.726;23.342;2023-12-28T09:03:13;53.30;;;35.03;;
6223;SDS011;3145;42.726;23.342;2023-12-28T09:05:40;61.63;;;37.90;;
6223;SDS011;3145;42.726;23.342;2023-12-28T09:08:07;60.00;;;37.87;;
6223;SDS011;3145;42.726;23.342;2023-12-28T09:10:34;56.70;;;38.20;;
6223;SDS011;3145;42.726;23.342;2023-12-28T09:13:00;57.97;;;37.57;;
6223;SDS011;3145;42.726;23.342;2023-12-28T09:15:27;50.27;;;35.70;;
6223;SDS011;3145;42.726;23.342;2023-12-28T09:17:56;59.37;;;35.73;;
6223;SDS011;3145;42.726;23.342;2023-12-28T09:20:23;57.33;;;36.87;;
6223;SDS011;3145;42.726;23.342;2023-12-28T09:22:49;56.90;;;37.40;;
6223;SDS011;3145;42.726;23.342;2023-12-28T09:25:21;57.17;;;38.43;;
6223;SDS011;3145;42.726;23.342;2023-12-28T09:27:47;54.07;;;37.03;;
6223;SDS011;3145;42.726;23.342;2023-12-28T09:30:14;56.93;;;36.57;;
6223;SDS011;3145;42.726;23.342;2023-12-28T09:32:41;61.53;;;39.07;;
6223;SDS011;3145;42.726;23.342;2023-12-28T09:35:09;49.23;;;33.77;;
6223;SDS011;3145;42.726;23.342;2023-12-28T09:37:36;48.33;;;35.83;;
6223;SDS011;3145;42.726;23.342;2023-12-28T09:40:03;66.07;;;39.57;;
6223;SDS011;3145;42.726;23.342;2023-12-28T09:42:39;61.43;;;37.17;;
6223;SDS011;3145;42.726;23.342;2023-12-28T09:45:14;55.10;;;40.93;;
6223;SDS011;3145;42.726;23.342;2023-12-28T09:47:41;61.50;;;41.63;;
6223;SDS011;3145;42.726;23.342;2023-12-28T09:50:11;57.17;;;39.20;;
6223;SDS011;3145;42.726;23.342;2023-12-28T09:52:41;57.30;;;39.93;;
6223;SDS011;3145;42.726;23.342;2023-12-28T09:55:08;62.30;;;39.27;;
6223;SDS011;3145;42.726;23.342;2023-12-28T09:57:35;61.40;;;41.60;;
6223;SDS011;3145;42.726;23.342;2023-12-28T10:00:03;58.23;;;40.00;;
6223;SDS011;3145;42.726;23.342;2023-12-28T10:02:32;61.67;;;39.37;;
6223;SDS011;3145;42.726;23.342;2023-12-28T10:05:00;65.97;;;41.47;;
6223;SDS011;3145;42.726;23.342;2023-12-28T10:07:28;70.17;;;40.10;;
6223;SDS011;3145;42.726;23.342;2023-12-28T10:09:55;61.17;;;40.77;;
6223;SDS011;3145;42.726;23.342;2023-12-28T10:12:21;60.07;;;39.90;;
6223;SDS011;3145;42.726;23.342;2023-12-28T10:14:50;60.20;;;38.67;;
6223;SDS011;3145;42.726;23.342;2023-12-28T10:17:16;58.57;;;38.73;;
6223;SDS011;3145;42.726;23.342;2023-12-28T10:19:43;57.93;;;39.60;;
6223;SDS011;3145;42.726;23.342;2023-12-28T10:22:13;59.23;;;38.07;;
6223;SDS011;3145;42.726;23.342;2023-12-28T10:24:42;56.50;;;38.53;;
6223;SDS011;3145;42.726;23.342;2023-12-28T10:27:10;48.87;;;34.33;;
6223;SDS011;3145;42.726;23.342;2023-12-28T10:29:37;59.00;;;39.37;;
6223;SDS011;3145;42.726;23.342;2023-12-28T10:32:04;51.57;;;36.37;;
6223;SDS011;3145;42.726;23.342;2023-12-28T10:34:30;56.07;;;37.27;;
6223;SDS011;3145;42.726;23.342;2023-12-28T10:36:57;61.23;;;38.97;;
6223;SDS011;3145;42.726;23.342;2023-12-28T10:39:27;51.50;;;36.30;;
6223;SDS011;3145;42.726;23.342;2023-12-28T10:41:59;47.67;;;32.87;;
6223;SDS011;3145;42.726;23.342;2023-12-28T10:44:31;49.70;;;33.63;;
6223;SDS011;3145;42.726;23.342;2023-12-28T10:47:04;46.50;;;33.03;;
6223;SDS011;3145;42.726;23.342;2023-12-28T10:49:36;46.90;;;33.10;;
6223;SDS011;3145;42.726;23.342;2023-12-28T10:52:06;51.37;;;32.23;;
6223;SDS011;3145;42.726;23.342;2023-12-28T10:54:37;53.03;;;34.93;;
6223;SDS011;3145;42.726;23.342;2023-12-28T10:57:15;50.43;;;35.87;;
6223;SDS011;3145;42.726;23.342;2023-12-28T10:59:53;52.73;;;38.00;;
6223;SDS011;3145;42.726;23.342;2023-12-28T11:02:25;53.30;;;36.23;;
6223;SDS011;3145;42.726;23.342;2023-12-28T11:04:54;41.97;;;31.33;;
6223;SDS011;3145;42.726;23.342;2023-12-28T11:07:22;47.83;;;33.27;;
6223;SDS011;3145;42.726;23.342;2023-12-28T11:09:51;44.50;;;31.10;;
6223;SDS011;3145;42.726;23.342;2023-12-28T11:12:22;48.20;;;33.97;;
6223;SDS011;3145;42.726;23.342;2023-12-28T11:14:51;50.37;;;32.67;;
6223;SDS011;3145;42.726;23.342;2023-12-28T11:17:20;41.53;;;30.53;;
6223;SDS011;3145;42.726;23.342;2023-12-28T11:19:48;47.20;;;32.40;;
6223;SDS011;3145;42.726;23.342;2023-12-28T11:22:16;47.87;;;31.33;;
6223;SDS011;3145;42.726;23.342;2023-12-28T11:24:42;46.40;;;31.67;;
6223;SDS011;3145;42.726;23.342;2023-12-28T11:27:09;48.53;;;33.23;;
6223;SDS011;3145;42.726;23.342;2023-12-28T11:29:39;44.37;;;32.60;;
6223;SDS011;3145;42.726;23.342;2023-12-28T11:32:08;41.40;;;30.97;;
6223;SDS011;3145;42.726;23.342;2023-12-28T11:34:35;43.13;;;29.63;;
6223;SDS011;3145;42.726;23.342;2023-12-28T11:37:04;42.23;;;30.07;;
6223;SDS011;3145;42.726;23.342;2023-12-28T11:39:33;43.20;;;30.80;;
6223;SDS011;3145;42.726;23.342;2023-12-28T11:42:01;42.63;;;30.20;;
6223;SDS011;3145;42.726;23.342;2023-12-28T11:44:29;50.83;;;32.57;;
6223;SDS011;3145;42.726;23.342;2023-12-28T11:46:57;46.33;;;33.47;;
6223;SDS011;3145;42.726;23.342;2023-12-28T11:49:27;45.13;;;32.47;;
6223;SDS011;3145;42.726;23.342;2023-12-28T11:51:55;49.60;;;33.80;;
6223;SDS011;3145;42.726;23.342;2023-12-28T11:54:23;44.47;;;30.60;;
6223;SDS011;3145;42.726;23.342;2023-12-28T11:56:51;54.97;;;31.53;;
6223;SDS011;3145;42.726;23.342;2023-12-28T11:59:18;45.77;;;31.10;;
6223;SDS011;3145;42.726;23.342;2023-12-28T12:01:48;44.63;;;30.60;;
6223;SDS011;3145;42.726;23.342;2023-12-28T12:04:17;42.57;;;30.80;;
6223;SDS011;3145;42.726;23.342;2023-12-28T12:06:44;40.13;;;30.00;;
6223;SDS011;3145;42.726;23.342;2023-12-28T12:09:11;46.07;;;30.27;;
6223;SDS011;3145;42.726;23.342;2023-12-28T12:11:37;44.70;;;28.63;;
6223;SDS011;3145;42.726;23.342;2023-12-28T12:14:07;36.73;;;27.23;;
6223;SDS011;3145;42.726;23.342;2023-12-28T12:16:35;35.97;;;26.07;;
6223;SDS011;3145;42.726;23.342;2023-12-28T12:19:02;36.80;;;26.07;;
6223;SDS011;3145;42.726;23.342;2023-12-28T12:21:33;40.23;;;24.70;;
6223;SDS011;3145;42.726;23.342;2023-12-28T12:24:00;33.53;;;24.53;;
6223;SDS011;3145;42.726;23.342;2023-12-28T12:26:27;34.90;;;23.13;;
6223;SDS011;3145;42.726;23.342;2023-12-28T12:28:55;31.97;;;24.30;;
6223;SDS011;3145;42.726;23.342;2023-12-28T12:31:22;28.97;;;22.73;;
6223;SDS011;3145;42.726;23.342;2023-12-28T12:33:49;33.70;;;22.83;;
6223;SDS011;3145;42.726;23.342;2023-12-28T12:36:17;31.93;;;22.40;;
6223;SDS011;3145;42.726;23.342;2023-12-28T12:38:45;31.17;;;22.40;;
6223;SDS011;3145;42.726;23.342;2023-12-28T12:41:12;34.03;;;23.67;;
6223;SDS011;3145;42.726;23.342;2023-12-28T12:43:39;33.73;;;24.83;;
6223;SDS011;3145;42.726;23.342;2023-12-28T12:46:07;38.07;;;26.30;;
6223;SDS011;3145;42.726;23.342;2023-12-28T12:48:34;37.60;;;24.97;;
6223;SDS011;3145;42.726;23.342;2023-12-28T12:51:01;34.00;;;23.40;;
6223;SDS011;3145;42.726;23.342;2023-12-28T12:53:32;34.47;;;23.97;;
6223;SDS011;3145;42.726;23.342;2023-12-28T12:56:01;28.20;;;22.20;;
6223;SDS011;3145;42.726;23.342;2023-12-28T12:58:30;32.80;;;22.50;;
6223;SDS011;3145;42.726;23.342;2023-12-28T13:00:56;32.10;;;22.70;;
6223;SDS011;3145;42.726;23.342;2023-12-28T13:03:27;34.40;;;24.13;;
6223;SDS011;3145;42.726;23.342;2023-12-28T13:05:55;34.47;;;24.73;;
6223;SDS011;3145;42.726;23.342;2023-12-28T13:08:21;43.77;;;26.50;;
6223;SDS011;3145;42.726;23.342;2023-12-28T13:10:48;37.27;;;26.47;;
6223;SDS011;3145;42.726;23.342;2023-12-28T13:13:17;39.90;;;27.27;;
6223;SDS011;3145;42.726;23.342;2023-12-28T13:15:44;40.00;;;26.03;;
6223;SDS011;3145;42.726;23.342;2023-12-28T13:18:10;37.60;;;25.67;;
6223;SDS011;3145;42.726;23.342;2023-12-28T13:20:37;32.43;;;26.27;;
6223;SDS011;3145;42.726;23.342;2023-12-28T13:23:04;34.33;;;23.77;;
6223;SDS011;3145;42.726;23.342;2023-12-28T13:25:31;30.53;;;22.23;;
6223;SDS011;3145;42.726;23.342;2023-12-28T13:27:57;33.23;;;23.97;;
6223;SDS011;3145;42.726;23.342;2023-12-28T13:30:25;40.13;;;25.73;;
6223;SDS011;3145;42.726;23.342;2023-12-28T13:32:53;44.53;;;26.67;;
6223;SDS011;3145;42.726;23.342;2023-12-28T13:35:21;43.07;;;26.60;;
6223;SDS011;3145;42.726;23.342;2023-12-28T13:37:48;51.33;;;27.07;;
6223;SDS011;3145;42.726;23.342;2023-12-28T13:40:15;37.33;;;25.60;;
6223;SDS011;3145;42.726;23.342;2023-12-28T13:42:42;41.77;;;25.33;;
6223;SDS011;3145;42.726;23.342;2023-12-28T13:45:08;34.67;;;23.83;;
6223;SDS011;3145;42.726;23.342;2023-12-28T13:47:37;34.83;;;23.23;;
6223;SDS011;3145;42.726;23.342;2023-12-28T13:50:04;37.10;;;22.97;;
6223;SDS011;3145;42.726;23.342;2023-12-28T13:52:31;25.70;;;19.70;;
6223;SDS011;3145;42.726;23.342;2023-12-28T13:54:58;29.80;;;21.93;;
6223;SDS011;3145;42.726;23.342;2023-12-28T13:57:25;29.47;;;22.17;;
6223;SDS011;3145;42.726;23.342;2023-12-28T13:59:52;31.83;;;21.50;;
6223;SDS011;3145;42.726;23.342;2023-12-28T14:02:18;33.37;;;20.67;;
6223;SDS011;3145;42.726;23.342;2023-12-28T14:04:48;42.30;;;23.93;;
6223;SDS011;3145;42.726;23.342;2023-12-28T14:07:15;39.60;;;23.87;;
6223;SDS011;3145;42.726;23.342;2023-12-28T14:09:41;35.90;;;26.40;;
6223;SDS011;3145;42.726;23.342;2023-12-28T14:12:08;39.20;;;24.20;;
6223;SDS011;3145;42.726;23.342;2023-12-28T14:14:35;38.03;;;26.40;;
6223;SDS011;3145;42.726;23.342;2023-12-28T14:17:02;39.13;;;28.50;;
6223;SDS011;3145;42.726;23.342;2023-12-28T14:19:29;45.27;;;28.83;;
6223;SDS011;3145;42.726;23.342;2023-12-28T14:21:57;43.97;;;28.00;;
6223;SDS011;3145;42.726;23.342;2023-12-28T14:24:25;46.93;;;30.83;;
6223;SDS011;3145;42.726;23.342;2023-12-28T14:26:53;41.57;;;28.33;;
6223;SDS011;3145;42.726;23.342;2023-12-28T14:29:21;59.50;;;40.10;;
6223;SDS011;3145;42.726;23.342;2023-12-28T14:31:48;42.37;;;30.67;;
6223;SDS011;3145;42.726;23.342;2023-12-28T14:34:15;65.77;;;37.40;;
6223;SDS011;3145;42.726;23.342;2023-12-28T14:36:44;60.93;;;37.13;;